createdAt,value
2022-10-24T00:01:37.143Z,6.07
2022-10-24T00:06:39.337Z,6.06
2022-10-24T00:09:07.546Z,6.09
2022-10-24T00:11:35.827Z,6.10
2022-10-24T00:14:03.813Z,6.07
2022-10-24T00:16:31.830Z,6.11
2022-10-24T00:19:02.256Z,6.10
2022-10-24T00:21:31.584Z,6.10
2022-10-24T00:23:59.491Z,6.10
2022-10-24T00:26:27.304Z,6.08
2022-10-24T00:28:55.224Z,6.10
2022-10-24T00:31:23.378Z,6.08
2022-10-24T00:33:51.404Z,6.06
2022-10-24T00:36:21.894Z,6.03
2022-10-24T00:38:51.884Z,6.05
2022-10-24T00:41:23.050Z,6.05
2022-10-24T00:43:51.301Z,6.02
2022-10-24T00:46:21.164Z,6.02
2022-10-24T00:48:52.645Z,6.02
2022-10-24T00:51:25.673Z,6.01
2022-10-24T00:54:01.807Z,5.99
2022-10-24T00:56:35.966Z,6.01
2022-10-24T00:59:06.208Z,6.03
2022-10-24T01:01:35.024Z,6.03
2022-10-24T01:04:03.152Z,6.01
2022-10-24T01:06:45.736Z,5.99
2022-10-24T01:09:37.313Z,5.95
2022-10-24T01:12:17.639Z,5.99
2022-10-24T01:14:54.168Z,6.00
2022-10-24T01:17:30.691Z,5.99
2022-10-24T01:20:28.036Z,6.03
2022-10-24T01:23:05.269Z,6.05
2022-10-24T01:25:44.923Z,6.05
2022-10-24T01:28:16.110Z,6.07
2022-10-24T01:30:49.855Z,6.09
2022-10-24T01:33:24.670Z,6.05
2022-10-24T01:35:57.497Z,6.06
2022-10-24T01:38:29.768Z,6.12
2022-10-24T01:41:01.792Z,6.11
2022-10-24T01:43:32.897Z,6.11
2022-10-24T01:46:08.587Z,6.07
2022-10-24T01:48:41.691Z,5.90
2022-10-24T01:51:12.739Z,6.13
2022-10-24T01:53:42.841Z,6.11
2022-10-24T01:56:10.815Z,6.14
2022-10-24T01:58:39.094Z,6.13
2022-10-24T02:01:13.159Z,6.14
2022-10-24T02:03:45.918Z,6.18
2022-10-24T02:06:18.198Z,6.18
2022-10-24T02:08:49.943Z,6.16
2022-10-24T02:11:17.864Z,6.13
2022-10-24T02:13:52.049Z,6.20
2022-10-24T02:16:22.050Z,6.20
2022-10-24T02:18:52.828Z,6.21
2022-10-24T02:21:29.567Z,6.22
2022-10-24T02:24:02.622Z,6.22
2022-10-24T02:26:35.633Z,6.13
2022-10-24T02:29:14.418Z,6.22
2022-10-24T02:31:49.407Z,6.21
2022-10-24T02:34:19.895Z,6.23
2022-10-24T02:36:51.047Z,6.20
2022-10-24T02:39:20.747Z,6.22
2022-10-24T02:41:50.732Z,6.14
2022-10-24T02:44:20.840Z,6.21
2022-10-24T02:46:54.570Z,6.25
2022-10-24T02:49:22.550Z,6.25
2022-10-24T02:51:52.029Z,6.25
2022-10-24T02:54:20.565Z,6.26
2022-10-24T02:56:53.272Z,6.27
2022-10-24T02:59:21.141Z,6.27
2022-10-24T03:01:50.414Z,6.28
2022-10-24T03:04:18.514Z,6.27
2022-10-24T03:06:46.647Z,6.25
2022-10-24T03:09:14.545Z,6.26
2022-10-24T03:11:42.805Z,6.16
2022-10-24T03:14:10.657Z,6.26
2022-10-24T03:16:38.532Z,6.30
2022-10-24T03:19:07.699Z,6.30
2022-10-24T03:21:36.863Z,6.32
2022-10-24T03:24:05.200Z,6.33
2022-10-24T03:26:33.379Z,6.32
2022-10-24T03:29:01.755Z,6.26
2022-10-24T03:31:30.762Z,6.31
2022-10-24T03:33:59.524Z,6.29
2022-10-24T03:36:28.855Z,6.32
2022-10-24T03:38:56.957Z,6.27
2022-10-24T03:41:24.788Z,6.19
2022-10-24T03:43:52.694Z,6.32
2022-10-24T03:46:20.705Z,6.30
2022-10-24T03:48:48.696Z,6.31
2022-10-24T03:51:16.808Z,6.26
2022-10-24T03:53:46.058Z,6.14
2022-10-24T03:56:14.235Z,6.29
2022-10-24T03:58:42.075Z,6.20
2022-10-24T04:01:16.945Z,6.27
2022-10-24T04:03:44.982Z,6.26
2022-10-24T04:06:13.202Z,6.26
2022-10-24T04:08:41.325Z,6.25
2022-10-24T04:11:10.884Z,6.21
2022-10-24T04:13:38.732Z,6.21
2022-10-24T04:16:08.553Z,6.18
2022-10-24T04:18:36.475Z,6.19
2022-10-24T04:21:04.939Z,6.18
2022-10-24T04:23:35.800Z,6.15
2022-10-24T04:26:04.340Z,6.11
2022-10-24T04:28:35.978Z,6.17
2022-10-24T04:31:07.709Z,6.18
2022-10-24T04:33:36.363Z,6.18
2022-10-24T04:36:04.503Z,6.21
2022-10-24T04:38:33.477Z,6.21
2022-10-24T04:41:01.875Z,6.19
2022-10-24T04:43:29.826Z,6.20
2022-10-24T04:45:59.000Z,6.22
2022-10-24T04:48:26.975Z,6.26
2022-10-24T04:50:55.732Z,6.25
2022-10-24T04:53:23.814Z,6.27
2022-10-24T04:55:52.128Z,6.24
2022-10-24T04:58:20.909Z,6.29
2022-10-24T05:00:50.259Z,6.32
2022-10-24T05:03:20.577Z,6.33
2022-10-24T05:05:48.736Z,6.27
2022-10-24T05:08:18.373Z,6.26
2022-10-24T05:10:46.700Z,6.32
2022-10-24T05:13:14.646Z,6.34
2022-10-24T05:15:43.000Z,6.36
2022-10-24T05:18:10.991Z,6.39
2022-10-24T05:23:09.373Z,6.36
2022-10-24T05:25:37.276Z,6.41
2022-10-24T05:28:05.256Z,6.34
2022-10-24T05:30:33.676Z,6.36
2022-10-24T05:33:01.573Z,6.39
2022-10-24T05:35:29.542Z,6.42
2022-10-24T05:37:58.942Z,6.38
2022-10-24T05:40:26.998Z,6.40
2022-10-24T05:42:55.051Z,6.43
2022-10-24T05:45:23.402Z,6.46
2022-10-24T05:47:51.382Z,6.49
2022-10-24T05:50:19.473Z,6.50
2022-10-24T05:52:47.521Z,6.31
2022-10-24T05:55:18.150Z,6.50
2022-10-24T05:57:47.231Z,6.50
2022-10-24T06:00:18.069Z,6.53
2022-10-24T06:05:15.927Z,6.53
2022-10-24T06:07:46.726Z,6.44
2022-10-24T06:10:16.645Z,6.63
2022-10-24T06:12:44.846Z,6.65
2022-10-24T06:15:14.464Z,6.63
2022-10-24T06:17:42.441Z,6.77
2022-10-24T06:20:11.185Z,6.76
2022-10-24T06:22:39.107Z,6.84
2022-10-24T06:25:07.737Z,6.86
2022-10-24T06:27:37.043Z,6.89
2022-10-24T06:30:06.453Z,6.93
2022-10-24T06:32:34.439Z,6.96
2022-10-24T06:35:05.130Z,6.93
2022-10-24T06:37:33.651Z,7.04
2022-10-24T06:40:01.819Z,7.14
2022-10-24T06:42:30.465Z,7.19
2022-10-24T06:47:32.832Z,7.20
2022-10-24T06:50:00.843Z,7.29
2022-10-24T06:52:28.680Z,7.30
2022-10-24T06:54:56.963Z,7.35
2022-10-24T06:57:25.422Z,7.33
2022-10-24T06:59:53.853Z,7.39
2022-10-24T07:02:23.054Z,7.37
2022-10-24T07:04:51.165Z,7.49
2022-10-24T07:07:21.245Z,7.74
2022-10-24T07:09:54.801Z,7.90
2022-10-24T07:12:23.151Z,7.91
2022-10-24T07:14:51.478Z,8.06
2022-10-24T07:17:21.164Z,8.12
2022-10-24T07:19:55.160Z,8.20
2022-10-24T07:22:24.012Z,8.31
2022-10-24T07:24:54.190Z,8.35
2022-10-24T07:27:22.273Z,8.47
2022-10-24T07:29:51.901Z,8.53
2022-10-24T07:32:20.299Z,8.62
2022-10-24T07:34:48.607Z,8.70
2022-10-24T07:37:18.777Z,8.79
2022-10-24T07:39:47.227Z,8.87
2022-10-24T07:42:16.092Z,8.92
2022-10-24T07:44:44.086Z,8.96
2022-10-24T07:47:12.316Z,8.79
2022-10-24T07:49:40.603Z,8.89
2022-10-24T07:52:08.515Z,8.83
2022-10-24T07:54:37.934Z,8.84
2022-10-24T07:57:05.966Z,8.90
2022-10-24T07:59:42.229Z,8.83
2022-10-24T08:02:12.534Z,8.92
2022-10-24T08:04:48.477Z,8.86
2022-10-24T08:07:30.109Z,8.78
2022-10-24T08:09:59.420Z,9.17
2022-10-24T08:12:27.366Z,9.17
2022-10-24T08:14:55.849Z,9.18
2022-10-24T08:17:24.754Z,9.11
2022-10-24T08:19:57.432Z,9.07
2022-10-24T08:22:25.574Z,9.08
2022-10-24T08:24:53.417Z,9.27
2022-10-24T08:27:22.724Z,9.25
2022-10-24T08:29:50.555Z,9.27
2022-10-24T08:32:18.656Z,9.37
2022-10-24T08:34:46.676Z,9.39
2022-10-24T08:37:14.544Z,9.46
2022-10-24T08:39:42.533Z,9.48
2022-10-24T08:42:15.382Z,9.47
2022-10-24T08:44:47.290Z,9.45
2022-10-24T08:47:23.584Z,9.42
2022-10-24T08:49:56.062Z,9.29
2022-10-24T08:52:32.078Z,9.33
2022-10-24T08:55:07.433Z,9.42
2022-10-24T08:57:37.184Z,9.30
2022-10-24T09:00:25.041Z,9.40
2022-10-24T09:03:03.385Z,9.39
2022-10-24T09:05:37.046Z,9.45
2022-10-24T09:08:21.708Z,9.48
2022-10-24T09:10:58.415Z,9.47
2022-10-24T09:13:28.336Z,9.52
2022-10-24T09:15:58.655Z,9.51
2022-10-24T09:18:30.045Z,9.53
2022-10-24T09:20:59.177Z,9.60
2022-10-24T09:23:28.287Z,9.61
2022-10-24T09:25:59.319Z,9.54
2022-10-24T09:28:27.697Z,9.57
2022-10-24T09:30:57.027Z,9.57
2022-10-24T09:33:30.052Z,9.62
2022-10-24T09:36:00.999Z,9.55
2022-10-24T09:38:33.788Z,9.51
2022-10-24T09:41:05.726Z,9.59
2022-10-24T09:43:39.133Z,9.55
2022-10-24T09:46:10.684Z,9.63
2022-10-24T09:48:50.939Z,9.63
2022-10-24T09:51:22.866Z,9.69
2022-10-24T09:54:04.865Z,9.65
2022-10-24T09:56:40.644Z,9.69
2022-10-24T09:59:20.870Z,9.68
2022-10-24T10:01:50.493Z,9.60
2022-10-24T10:04:20.633Z,9.73
2022-10-24T10:06:51.259Z,9.88
2022-10-24T10:09:28.014Z,9.91
2022-10-24T10:12:05.808Z,9.97
2022-10-24T10:14:44.032Z,9.99
2022-10-24T10:17:23.170Z,9.96
2022-10-24T10:19:51.967Z,10.01
2022-10-24T10:22:26.891Z,9.98
2022-10-24T10:24:56.413Z,9.96
2022-10-24T10:27:33.911Z,9.92
2022-10-24T10:30:17.792Z,9.97
2022-10-24T10:33:00.475Z,9.98
2022-10-24T10:35:36.809Z,10.06
2022-10-24T10:38:20.755Z,10.02
2022-10-24T10:40:53.514Z,9.81
2022-10-24T10:43:36.529Z,9.76
2022-10-24T10:46:18.249Z,9.74
2022-10-24T10:49:02.116Z,9.68
2022-10-24T10:51:42.497Z,9.51
2022-10-24T10:54:34.272Z,9.50
2022-10-24T10:57:08.350Z,9.53
2022-10-24T10:59:49.767Z,9.48
2022-10-24T11:02:39.771Z,9.42
2022-10-24T11:05:24.320Z,9.45
2022-10-24T11:08:01.589Z,9.41
2022-10-24T11:10:34.645Z,9.45
2022-10-24T11:13:08.380Z,9.46
2022-10-24T11:15:41.912Z,9.42
2022-10-24T11:18:13.978Z,9.56
2022-10-24T11:20:48.479Z,9.63
2022-10-24T11:23:24.192Z,9.65
2022-10-24T11:25:55.979Z,9.66
2022-10-24T11:28:30.044Z,9.76
2022-10-24T11:31:02.447Z,9.88
2022-10-24T11:33:35.835Z,9.87
2022-10-24T11:36:13.907Z,9.87
2022-10-24T11:38:49.546Z,9.93
2022-10-24T11:41:36.737Z,9.86
2022-10-24T11:44:14.783Z,9.89
2022-10-24T11:46:49.830Z,9.75
2022-10-24T11:49:24.612Z,9.83
2022-10-24T11:51:58.514Z,9.76
2022-10-24T11:54:32.192Z,9.71
2022-10-24T11:57:03.768Z,9.79
2022-10-24T11:59:31.905Z,9.76
2022-10-24T12:02:39.351Z,9.79
2022-10-24T12:08:38.593Z,9.75
2022-10-24T12:11:24.224Z,9.81
2022-10-24T12:14:08.386Z,9.79
2022-10-24T12:16:50.975Z,9.80
2022-10-24T12:19:22.298Z,9.74
2022-10-24T12:21:55.177Z,9.87
2022-10-24T12:24:30.227Z,10.02
2022-10-24T12:27:03.001Z,10.24
2022-10-24T12:29:34.073Z,10.35
2022-10-24T12:32:30.063Z,10.62
2022-10-24T12:35:25.297Z,10.64
2022-10-24T12:37:47.256Z,10.74
2022-10-24T12:40:55.561Z,10.66
2022-10-24T12:43:32.968Z,10.59
2022-10-24T12:46:23.159Z,10.47
2022-10-24T12:49:23.190Z,10.50
2022-10-24T12:51:54.438Z,10.43
2022-10-24T12:54:40.397Z,10.43
2022-10-24T12:57:24.870Z,10.28
2022-10-24T12:59:55.109Z,10.22
2022-10-24T13:03:01.873Z,10.16
2022-10-24T13:06:13.513Z,10.21
2022-10-24T13:08:57.544Z,9.96
2022-10-24T13:11:38.148Z,10.00
2022-10-24T13:14:23.575Z,10.01
2022-10-24T13:17:02.882Z,9.91
2022-10-24T13:19:31.470Z,9.82
2022-10-24T13:22:01.921Z,9.88
2022-10-24T13:24:35.284Z,9.80
2022-10-24T13:27:25.931Z,9.75
2022-10-24T13:30:04.924Z,9.77
2022-10-24T13:32:36.204Z,9.72
2022-10-24T13:35:06.984Z,9.78
2022-10-24T13:37:39.092Z,9.71
2022-10-24T13:40:11.982Z,9.78
2022-10-24T13:42:50.840Z,9.71
2022-10-24T13:45:27.580Z,9.74
2022-10-24T13:47:59.924Z,9.75
2022-10-24T13:50:31.350Z,9.75
2022-10-24T13:53:02.703Z,9.84
2022-10-24T13:55:38.176Z,9.92
2022-10-24T13:58:11.897Z,9.96
2022-10-24T14:00:46.831Z,9.94
2022-10-24T14:03:17.078Z,9.77
2022-10-24T14:05:48.174Z,9.77
2022-10-24T14:08:24.174Z,9.73
2022-10-24T14:10:54.090Z,9.66
2022-10-24T14:13:26.753Z,9.69
2022-10-24T14:15:59.449Z,9.58
2022-10-24T14:18:28.004Z,9.46
2022-10-24T14:20:57.888Z,9.54
2022-10-24T14:23:29.334Z,9.48
2022-10-24T14:26:01.625Z,9.43
2022-10-24T14:28:31.741Z,9.40
2022-10-24T14:31:03.132Z,9.44
2022-10-24T14:33:33.838Z,9.40
2022-10-24T14:36:03.961Z,9.46
2022-10-24T14:38:32.938Z,9.45
2022-10-24T14:41:08.769Z,9.35
2022-10-24T14:43:42.233Z,9.26
2022-10-24T14:46:34.910Z,9.18
2022-10-24T14:49:20.723Z,9.20
2022-10-24T14:51:50.960Z,9.19
2022-10-24T14:54:22.487Z,9.12
2022-10-24T14:56:53.616Z,9.16
2022-10-24T14:59:26.614Z,9.19
2022-10-24T15:01:58.158Z,9.23
2022-10-24T15:04:33.574Z,9.18
2022-10-24T15:07:16.417Z,9.13
2022-10-24T15:09:58.277Z,9.15
2022-10-24T15:12:34.515Z,9.11
2022-10-24T15:15:22.960Z,9.10
2022-10-24T15:17:54.277Z,9.05
2022-10-24T15:20:27.704Z,9.02
2022-10-24T15:22:58.871Z,8.99
2022-10-24T15:25:30.811Z,9.00
2022-10-24T15:28:00.396Z,9.03
2022-10-24T15:30:31.870Z,8.97
2022-10-24T15:33:02.790Z,8.70
2022-10-24T15:35:35.139Z,8.90
2022-10-24T15:38:16.986Z,8.92
2022-10-24T15:40:47.355Z,8.84
2022-10-24T15:43:17.489Z,8.91
2022-10-24T15:45:49.122Z,8.91
2022-10-24T15:48:18.615Z,8.89
2022-10-24T15:50:47.567Z,8.84
2022-10-24T15:53:19.977Z,8.89
2022-10-24T15:55:48.351Z,8.91
2022-10-24T15:58:18.051Z,8.85
2022-10-24T16:00:46.709Z,8.79
2022-10-24T16:03:20.481Z,8.89
2022-10-24T16:05:52.578Z,8.87
2022-10-24T16:08:21.379Z,8.84
2022-10-24T16:10:50.857Z,8.84
2022-10-24T16:13:21.043Z,8.82
2022-10-24T16:15:49.979Z,8.84
2022-10-24T16:18:19.558Z,8.78
2022-10-24T16:20:47.578Z,8.71
2022-10-24T16:23:17.909Z,8.81
2022-10-24T16:25:46.569Z,8.59
2022-10-24T16:28:15.576Z,8.80
2022-10-24T16:30:44.756Z,8.86
2022-10-24T16:33:13.759Z,8.85
2022-10-24T16:35:43.055Z,8.88
2022-10-24T16:38:12.910Z,8.86
2022-10-24T16:40:42.715Z,8.82
2022-10-24T16:43:11.996Z,8.79
2022-10-24T16:45:40.151Z,8.81
2022-10-24T16:48:08.622Z,8.87
2022-10-24T16:50:37.235Z,8.84
2022-10-24T16:53:08.966Z,8.85
2022-10-24T16:55:37.698Z,8.82
2022-10-24T16:58:05.576Z,8.87
2022-10-24T17:00:33.668Z,8.86
2022-10-24T17:03:01.682Z,8.91
2022-10-24T17:05:29.707Z,8.91
2022-10-24T17:07:57.773Z,8.95
2022-10-24T17:10:27.332Z,8.81
2022-10-24T17:12:55.943Z,8.94
2022-10-24T17:15:24.469Z,8.96
2022-10-24T17:17:52.479Z,8.94
2022-10-24T17:20:20.555Z,8.93
2022-10-24T17:22:48.929Z,8.97
2022-10-24T17:25:21.244Z,8.98
2022-10-24T17:27:52.111Z,8.98
2022-10-24T17:30:22.268Z,8.81
2022-10-24T17:32:51.022Z,8.99
2022-10-24T17:35:21.955Z,8.92
2022-10-24T17:38:01.134Z,8.89
2022-10-24T17:40:33.162Z,8.83
2022-10-24T17:43:03.183Z,8.87
2022-10-24T17:45:34.386Z,8.87
2022-10-24T17:48:02.404Z,8.85
2022-10-24T17:50:30.297Z,8.91
2022-10-24T17:52:58.271Z,8.80
2022-10-24T17:55:44.990Z,8.87
2022-10-24T17:58:16.319Z,8.87
2022-10-24T18:00:44.848Z,8.84
2022-10-24T18:03:12.995Z,8.83
2022-10-24T18:05:41.151Z,8.88
2022-10-24T18:08:10.854Z,8.87
2022-10-24T18:10:39.764Z,8.85
2022-10-24T18:13:08.740Z,8.91
2022-10-24T18:15:38.493Z,8.87
2022-10-24T18:18:07.139Z,8.84
2022-10-24T18:20:35.941Z,8.87
2022-10-24T18:23:06.148Z,8.80
2022-10-24T18:25:34.268Z,8.82
2022-10-24T18:28:02.370Z,8.62
2022-10-24T18:30:36.598Z,8.69
2022-10-24T18:33:06.104Z,8.81
2022-10-24T18:35:36.326Z,8.82
2022-10-24T18:38:04.255Z,8.82
2022-10-24T18:40:38.319Z,8.80
2022-10-24T18:43:07.564Z,8.78
2022-10-24T18:45:37.842Z,8.77
2022-10-24T18:48:09.356Z,8.81
2022-10-24T18:50:37.518Z,8.67
2022-10-24T18:53:08.307Z,8.85
2022-10-24T18:55:37.189Z,8.74
2022-10-24T18:58:06.141Z,8.77
2022-10-24T19:00:38.330Z,8.82
2022-10-24T19:03:18.863Z,8.70
2022-10-24T19:05:52.097Z,8.83
2022-10-24T19:08:24.293Z,8.83
2022-10-24T19:10:55.266Z,8.84
2022-10-24T19:13:24.562Z,8.89
2022-10-24T19:15:57.991Z,8.85
2022-10-24T19:18:33.064Z,8.83
2022-10-24T19:21:05.212Z,8.86
2022-10-24T19:23:35.656Z,8.78
2022-10-24T19:26:04.221Z,8.82
2022-10-24T19:28:32.597Z,8.76
2022-10-24T19:31:00.808Z,8.61
2022-10-24T19:33:30.625Z,8.62
2022-10-24T19:36:03.517Z,8.92
2022-10-24T19:38:31.560Z,8.96
2022-10-24T19:41:02.000Z,8.98
2022-10-24T19:43:32.302Z,8.93
2022-10-24T19:46:19.304Z,8.96
2022-10-24T19:48:50.426Z,8.94
2022-10-24T19:51:20.146Z,8.93
2022-10-24T19:53:49.584Z,8.99
2022-10-24T19:56:22.641Z,8.96
2022-10-24T19:58:53.229Z,8.98
2022-10-24T20:01:22.865Z,8.99
2022-10-24T20:03:54.989Z,9.03
2022-10-24T20:06:23.731Z,9.05
2022-10-24T20:08:51.647Z,9.05
2022-10-24T20:11:20.844Z,9.02
2022-10-24T20:13:51.516Z,9.02
2022-10-24T20:16:20.098Z,8.98
2022-10-24T20:18:48.392Z,9.05
2022-10-24T20:21:21.157Z,9.07
2022-10-24T20:23:49.890Z,9.07
2022-10-24T20:26:20.318Z,9.12
2022-10-24T20:28:50.952Z,9.11
2022-10-24T20:31:20.808Z,9.12
2022-10-24T20:33:48.944Z,9.04
2022-10-24T20:36:17.070Z,9.05
2022-10-24T20:38:46.449Z,9.15
2022-10-24T20:41:14.307Z,9.15
2022-10-24T20:43:42.408Z,9.12
2022-10-24T20:46:10.462Z,8.98
2022-10-24T20:48:38.548Z,8.98
2022-10-24T20:51:08.566Z,9.08
2022-10-24T20:53:36.583Z,9.14
2022-10-24T20:56:07.698Z,9.05
2022-10-24T20:58:38.046Z,9.17
2022-10-24T21:01:07.748Z,9.18
2022-10-24T21:03:37.570Z,9.02
2022-10-24T21:06:07.827Z,9.12
2022-10-24T21:08:35.962Z,9.07
2022-10-24T21:11:08.344Z,9.06
2022-10-24T21:13:36.307Z,9.13
2022-10-24T21:16:04.251Z,9.13
2022-10-24T21:18:35.861Z,9.05
2022-10-24T21:21:08.392Z,9.19
2022-10-24T21:23:39.180Z,9.16
2022-10-24T21:26:11.669Z,9.26
2022-10-24T21:28:46.357Z,8.95
2022-10-24T21:31:19.307Z,9.23
2022-10-24T21:33:47.870Z,9.08
2022-10-24T21:36:17.505Z,9.25
2022-10-24T21:38:47.615Z,9.26
2022-10-24T21:41:17.855Z,9.24
2022-10-24T21:43:46.425Z,9.08
2022-10-24T21:46:15.890Z,9.31
2022-10-24T21:48:45.335Z,9.27
2022-10-24T21:51:17.356Z,9.33
2022-10-24T21:53:46.679Z,9.35
2022-10-24T21:56:17.929Z,9.26
2022-10-24T21:58:47.825Z,9.27
2022-10-24T22:01:18.187Z,9.31
2022-10-24T22:03:46.951Z,9.30
2022-10-24T22:06:18.744Z,9.33
2022-10-24T22:08:50.857Z,9.36
2022-10-24T22:11:25.135Z,9.41
2022-10-24T22:13:53.809Z,9.43
2022-10-24T22:16:24.547Z,9.45
2022-10-24T22:18:53.144Z,9.47
2022-10-24T22:21:27.563Z,9.54
2022-10-24T22:23:57.052Z,9.53
2022-10-24T22:26:27.443Z,9.54
2022-10-24T22:28:57.109Z,9.56
2022-10-24T22:31:27.208Z,9.55
2022-10-24T22:33:56.487Z,9.50
2022-10-24T22:36:40.525Z,9.64
2022-10-24T22:39:15.134Z,9.68
2022-10-24T22:41:45.836Z,9.70
2022-10-24T22:44:16.805Z,9.67
2022-10-24T22:47:10.642Z,9.72
2022-10-24T22:49:50.410Z,9.70
2022-10-24T22:52:18.838Z,9.66
2022-10-24T22:55:38.707Z,9.51
2022-10-24T22:58:29.192Z,9.70
2022-10-24T23:01:01.560Z,9.78
2022-10-24T23:03:38.642Z,9.79
2022-10-24T23:06:15.008Z,9.83
2022-10-24T23:08:45.607Z,9.88
2022-10-24T23:11:15.336Z,9.86
2022-10-24T23:13:48.286Z,9.87
2022-10-24T23:16:27.827Z,9.87
2022-10-24T23:18:56.270Z,9.93
2022-10-24T23:21:31.665Z,9.74
2022-10-24T23:24:00.232Z,9.93
2022-10-24T23:26:37.354Z,9.92
2022-10-24T23:29:18.497Z,10.00
2022-10-24T23:31:47.056Z,10.02
2022-10-24T23:34:15.749Z,10.03
2022-10-24T23:36:45.712Z,10.05
2022-10-24T23:39:15.031Z,9.84
2022-10-24T23:41:46.771Z,10.06
2022-10-24T23:44:16.861Z,9.99
2022-10-24T23:46:49.267Z,9.99
2022-10-24T23:49:27.264Z,10.03
2022-10-24T23:52:06.446Z,10.02
2022-10-24T23:54:35.069Z,10.04
2022-10-24T23:57:03.561Z,10.07
2022-10-24T23:59:32.822Z,10.09
